createdAt,value
2018-12-05T00:00:48.505Z,98.10
2018-12-05T00:01:48.474Z,98.36
2018-12-05T00:02:48.468Z,97.95
2018-12-05T00:03:48.449Z,97.68
2018-12-05T00:04:48.439Z,97.68
2018-12-05T00:05:48.470Z,97.99
2018-12-05T00:06:48.418Z,98.31
2018-12-05T00:07:48.408Z,97.99
2018-12-05T00:08:48.392Z,98.52
2018-12-05T00:09:48.382Z,98.41
2018-12-05T00:10:48.378Z,98.31
2018-12-05T00:11:48.378Z,98.52
2018-12-05T00:12:48.348Z,98.31
2018-12-05T00:13:48.336Z,98.72
2018-12-05T00:14:48.327Z,98.31
2018-12-05T00:15:48.318Z,98.62
2018-12-05T00:16:48.323Z,98.83
2018-12-05T00:17:48.311Z,98.83
2018-12-05T00:18:48.281Z,98.72
2018-12-05T00:19:48.272Z,98.62
2018-12-05T00:20:48.264Z,98.41
2018-12-05T00:21:48.268Z,98.93
2018-12-05T00:22:48.246Z,98.26
2018-12-05T00:23:48.226Z,98.72
2018-12-05T00:24:48.213Z,98.31
2018-12-05T00:25:48.203Z,98.41
2018-12-05T00:26:48.217Z,98.62
2018-12-05T00:27:48.177Z,98.41
2018-12-05T00:28:48.170Z,98.36
2018-12-05T00:29:48.156Z,98.31
2018-12-05T00:30:48.145Z,98.31
2018-12-05T00:31:48.154Z,98.72
2018-12-05T00:32:48.122Z,98.62
2018-12-05T00:33:48.113Z,98.68
2018-12-05T00:34:48.102Z,98.16
2018-12-05T00:35:48.090Z,98.16
2018-12-05T00:36:48.103Z,98.20
2018-12-05T00:37:48.066Z,98.31
2018-12-05T00:38:48.053Z,98.26
2018-12-05T00:39:48.200Z,97.47
2018-12-05T00:40:48.032Z,97.85
2018-12-05T00:41:48.022Z,98.05
2018-12-05T00:42:48.030Z,98.36
2018-12-05T00:43:48.002Z,97.74
2018-12-05T00:44:47.987Z,98.05
2018-12-05T00:45:47.977Z,98.36
2018-12-05T00:46:47.968Z,98.10
2018-12-05T00:47:47.979Z,98.05
2018-12-05T00:48:47.945Z,97.64
2018-12-05T00:49:47.936Z,98.47
2018-12-05T00:50:47.923Z,97.74
2018-12-05T00:51:47.936Z,97.43
2018-12-05T00:52:47.896Z,97.74
2018-12-05T00:53:47.886Z,97.64
2018-12-05T00:54:47.879Z,97.53
2018-12-05T00:55:47.864Z,97.43
2018-12-05T00:56:47.851Z,97.43
2018-12-05T00:57:47.862Z,97.43
2018-12-05T00:58:47.831Z,97.53
2018-12-05T00:59:47.817Z,97.33
2018-12-05T01:00:47.810Z,97.33
2018-12-05T01:01:47.806Z,97.49
2018-12-05T01:02:47.803Z,97.53
2018-12-05T01:03:47.772Z,97.33
2018-12-05T01:04:47.859Z,97.53
2018-12-05T01:05:47.749Z,97.12
2018-12-05T01:06:47.738Z,97.17
2018-12-05T01:07:47.751Z,97.33
2018-12-05T01:08:47.719Z,97.49
2018-12-05T01:09:47.704Z,97.53
2018-12-05T01:10:47.691Z,97.43
2018-12-05T01:11:47.680Z,97.43
2018-12-05T01:12:47.672Z,97.38
2018-12-05T01:13:47.678Z,97.43
2018-12-05T01:14:47.647Z,97.43
2018-12-05T01:15:47.637Z,97.49
2018-12-05T01:16:47.625Z,97.22
2018-12-05T01:17:47.617Z,97.43
2018-12-05T01:18:47.629Z,97.59
2018-12-05T01:19:47.591Z,97.53
2018-12-05T01:20:47.578Z,97.43
2018-12-05T01:21:47.569Z,97.43
2018-12-05T01:22:47.556Z,97.49
2018-12-05T01:23:47.544Z,97.38
2018-12-05T01:24:47.555Z,97.49
2018-12-05T01:25:47.521Z,97.53
2018-12-05T01:26:47.511Z,97.12
2018-12-05T01:27:47.501Z,96.91
2018-12-05T01:28:47.487Z,97.01
2018-12-05T01:29:47.494Z,97.33
2018-12-05T01:30:47.463Z,97.22
2018-12-05T01:31:47.451Z,97.22
2018-12-05T01:32:47.443Z,97.53
2018-12-05T01:33:47.429Z,97.53
2018-12-05T01:34:47.446Z,97.01
2018-12-05T01:35:47.407Z,97.12
2018-12-05T01:36:47.395Z,97.22
2018-12-05T01:37:47.384Z,96.91
2018-12-05T01:38:47.372Z,96.97
2018-12-05T01:39:47.360Z,97.01
2018-12-05T01:40:47.370Z,97.38
2018-12-05T01:41:47.338Z,96.91
2018-12-05T01:42:47.326Z,97.53
2018-12-05T01:43:47.322Z,97.17
2018-12-05T01:44:47.304Z,97.28
2018-12-05T01:45:47.317Z,97.38
2018-12-05T01:46:47.284Z,97.07
2018-12-05T01:47:47.269Z,97.12
2018-12-05T01:48:47.259Z,97.38
2018-12-05T01:49:47.248Z,97.22
2018-12-05T01:50:47.234Z,97.38
2018-12-05T01:51:47.247Z,97.01
2018-12-05T01:52:47.212Z,97.28
2018-12-05T01:53:47.200Z,97.07
2018-12-05T01:54:47.189Z,96.91
2018-12-05T01:55:47.179Z,97.12
2018-12-05T01:56:47.191Z,97.22
2018-12-05T01:57:47.156Z,97.12
2018-12-05T01:58:47.146Z,97.49
2018-12-05T01:59:47.133Z,97.53
2018-12-05T02:00:47.125Z,97.38
2018-12-05T02:01:47.110Z,97.01
2018-12-05T02:02:47.118Z,97.43
2018-12-05T02:03:47.087Z,97.12
2018-12-05T02:04:47.082Z,97.22
2018-12-05T02:05:47.066Z,97.43
2018-12-05T02:06:47.057Z,97.22
2018-12-05T02:07:47.065Z,97.16
2018-12-05T02:08:47.031Z,97.22
2018-12-05T02:09:47.019Z,97.43
2018-12-05T02:10:47.007Z,97.53
2018-12-05T02:11:46.998Z,97.68
2018-12-05T02:12:47.002Z,97.22
2018-12-05T02:13:46.975Z,97.47
2018-12-05T02:14:46.961Z,97.64
2018-12-05T02:15:46.951Z,97.43
2018-12-05T02:16:46.939Z,97.47
2018-12-05T02:17:46.950Z,97.58
2018-12-05T02:18:46.915Z,97.68
2018-12-05T02:19:46.905Z,97.16
2018-12-05T02:20:46.895Z,97.58
2018-12-05T02:21:46.883Z,97.64
2018-12-05T02:22:46.887Z,98.16
2018-12-05T02:23:46.862Z,98.16
2018-12-05T02:24:46.850Z,97.99
2018-12-05T02:25:46.839Z,98.20
2018-12-05T02:26:46.826Z,98.20
2018-12-05T02:27:46.837Z,98.62
2018-12-05T02:28:46.803Z,98.26
2018-12-05T02:29:46.799Z,98.10
2018-12-05T02:30:46.780Z,98.52
2018-12-05T02:31:46.773Z,98.41
2018-12-05T02:32:46.762Z,97.99
2018-12-05T02:33:46.767Z,98.31
2018-12-05T02:34:46.736Z,98.10
2018-12-05T02:35:46.730Z,98.31
2018-12-05T02:36:46.718Z,97.99
2018-12-05T02:37:46.701Z,98.20
2018-12-05T02:38:46.708Z,98.25
2018-12-05T02:39:46.679Z,98.35
2018-12-05T02:40:46.669Z,98.10
2018-12-05T02:41:46.660Z,98.77
2018-12-05T02:42:46.646Z,98.66
2018-12-05T02:43:46.660Z,98.77
2018-12-05T02:44:46.627Z,98.25
2018-12-05T02:45:46.611Z,98.56
2018-12-05T02:46:46.600Z,98.46
2018-12-05T02:47:46.591Z,98.35
2018-12-05T02:48:46.577Z,98.66
2018-12-05T02:49:46.587Z,98.56
2018-12-05T02:50:46.554Z,98.66
2018-12-05T02:51:46.544Z,98.46
2018-12-05T02:52:46.533Z,98.46
2018-12-05T02:53:46.525Z,99.29
2018-12-05T02:54:46.538Z,98.14
2018-12-05T02:55:46.519Z,98.35
2018-12-05T02:56:46.488Z,98.35
2018-12-05T02:57:46.477Z,98.46
2018-12-05T02:58:46.466Z,98.35
2018-12-05T02:59:46.455Z,99.50
2018-12-05T03:00:46.490Z,99.29
2018-12-05T03:01:46.430Z,99.18
2018-12-05T03:02:46.423Z,98.83
2018-12-05T03:03:46.408Z,99.29
2018-12-05T03:04:46.400Z,99.35
2018-12-05T03:05:46.383Z,99.18
2018-12-05T03:06:46.394Z,97.89
2018-12-05T03:07:46.363Z,98.56
2018-12-05T03:08:46.351Z,98.56
2018-12-05T03:09:46.344Z,98.52
2018-12-05T03:10:46.328Z,98.77
2018-12-05T03:11:46.334Z,99.14
2018-12-05T03:12:46.305Z,98.25
2018-12-05T03:13:46.295Z,98.10
2018-12-05T03:14:46.282Z,99.14
2018-12-05T03:15:46.270Z,98.14
2018-12-05T03:16:46.304Z,99.14
2018-12-05T03:17:46.257Z,98.83
2018-12-05T03:18:46.236Z,98.93
2018-12-05T03:19:46.225Z,98.46
2018-12-05T03:20:46.214Z,98.41
2018-12-05T03:21:46.206Z,98.62
2018-12-05T03:22:46.215Z,98.87
2018-12-05T03:23:46.184Z,98.66
2018-12-05T03:24:46.168Z,98.66
2018-12-05T03:25:46.160Z,98.25
2018-12-05T03:26:46.146Z,98.08
2018-12-05T03:27:46.165Z,98.77
2018-12-05T03:28:46.123Z,98.66
2018-12-05T03:29:46.112Z,98.66
2018-12-05T03:30:46.102Z,98.35
2018-12-05T03:31:46.103Z,98.82
2018-12-05T03:32:46.098Z,98.87
2018-12-05T03:33:46.109Z,98.92
2018-12-05T03:34:46.056Z,98.08
2018-12-05T03:35:46.048Z,98.60
2018-12-05T03:36:46.032Z,98.50
2018-12-05T03:37:46.042Z,98.71
2018-12-05T03:38:46.009Z,98.29
2018-12-05T03:39:45.999Z,98.50
2018-12-05T03:40:45.988Z,98.29
2018-12-05T03:41:45.977Z,98.92
2018-12-05T03:42:45.986Z,98.50
2018-12-05T03:43:45.958Z,99.23
2018-12-05T03:44:45.946Z,98.60
2018-12-05T03:45:45.933Z,98.60
2018-12-05T03:46:45.920Z,99.02
2018-12-05T03:47:45.931Z,99.02
2018-12-05T03:48:45.897Z,99.23
2018-12-05T03:49:45.888Z,98.60
2018-12-05T03:50:45.875Z,98.97
2018-12-05T03:51:45.864Z,98.87
2018-12-05T03:52:45.855Z,99.08
2018-12-05T03:53:45.866Z,99.33
2018-12-05T03:54:45.834Z,99.29
2018-12-05T03:55:45.820Z,99.18
2018-12-05T03:56:45.808Z,98.82
2018-12-05T03:57:45.802Z,99.18
2018-12-05T03:58:45.825Z,98.87
2018-12-05T03:59:45.774Z,98.71
2018-12-05T04:00:45.766Z,99.13
2018-12-05T04:01:45.753Z,99.08
2018-12-05T04:02:45.740Z,99.44
2018-12-05T04:03:45.729Z,98.82
2018-12-05T04:04:45.743Z,98.71
2018-12-05T04:05:45.706Z,98.82
2018-12-05T04:06:45.708Z,98.50
2018-12-05T04:07:45.685Z,98.50
2018-12-05T04:08:45.680Z,98.75
2018-12-05T04:09:45.687Z,98.92
2018-12-05T04:10:45.654Z,98.39
2018-12-05T04:11:45.638Z,99.02
2018-12-05T04:12:45.630Z,99.33
2018-12-05T04:13:45.616Z,99.13
2018-12-05T04:14:45.606Z,98.60
2018-12-05T04:15:45.615Z,99.07
2018-12-05T04:16:45.582Z,98.50
2018-12-05T04:17:45.579Z,98.71
2018-12-05T04:18:45.559Z,98.50
2018-12-05T04:19:45.551Z,99.38
2018-12-05T04:20:45.561Z,99.02
2018-12-05T04:21:45.532Z,99.44
2018-12-05T04:22:45.558Z,99.27
2018-12-05T04:23:45.512Z,99.33
2018-12-05T04:24:45.492Z,99.02
2018-12-05T04:25:45.500Z,99.48
2018-12-05T04:26:45.471Z,99.27
2018-12-05T04:27:45.462Z,99.13
2018-12-05T04:28:45.455Z,99.23
2018-12-05T04:29:45.453Z,99.13
2018-12-05T04:30:45.450Z,98.60
2018-12-05T04:31:45.415Z,99.23
2018-12-05T04:32:45.404Z,99.27
2018-12-05T04:33:45.394Z,98.44
2018-12-05T04:34:45.385Z,98.71
2018-12-05T04:35:45.368Z,98.55
2018-12-05T04:36:45.379Z,98.71
2018-12-05T04:37:45.351Z,99.02
2018-12-05T04:38:45.336Z,99.33
2018-12-05T04:39:45.334Z,98.82
2018-12-05T04:40:45.314Z,98.55
2018-12-05T04:41:45.320Z,98.71
2018-12-05T04:42:45.290Z,99.33
2018-12-05T04:43:45.280Z,99.33
2018-12-05T04:44:45.267Z,98.97
2018-12-05T04:47:17.200Z,98.77
2018-12-05T04:48:17.162Z,99.85
2018-12-05T04:49:17.150Z,99.02
2018-12-05T04:50:17.139Z,99.44
2018-12-05T04:51:17.129Z,98.87
2018-12-05T04:52:17.135Z,98.92
2018-12-05T04:53:17.106Z,98.71
2018-12-05T04:54:17.094Z,99.33
2018-12-05T04:55:17.082Z,98.25
2018-12-05T04:56:17.080Z,99.33
2018-12-05T04:57:17.079Z,98.39
2018-12-05T04:58:17.047Z,99.40
2018-12-05T04:59:17.035Z,99.02
2018-12-05T05:00:17.027Z,99.33
2018-12-05T05:01:17.011Z,99.29
2018-12-05T05:02:17.022Z,98.82
2018-12-05T05:03:16.991Z,99.08
2018-12-05T05:04:16.980Z,99.29
2018-12-05T05:05:16.973Z,98.66
2018-12-05T05:06:16.958Z,99.04
2018-12-05T05:07:16.965Z,99.35
2018-12-05T05:08:16.933Z,98.66
2018-12-05T05:09:16.922Z,98.83
2018-12-05T05:10:16.913Z,99.24
2018-12-05T05:11:16.908Z,98.36
2018-12-05T05:12:16.909Z,98.57
2018-12-05T05:13:16.874Z,98.20
2018-12-05T05:14:16.865Z,98.20
2018-12-05T05:15:16.851Z,98.31
2018-12-05T05:16:16.841Z,98.41
2018-12-05T05:17:16.847Z,98.10
2018-12-05T05:18:16.816Z,98.20
2018-12-05T05:19:16.805Z,97.89
2018-12-05T05:20:16.794Z,97.85
2018-12-05T05:21:16.788Z,97.74
2018-12-05T05:22:16.791Z,98.41
2018-12-05T05:23:16.776Z,97.68
2018-12-05T05:24:16.750Z,97.89
2018-12-05T05:25:16.737Z,97.68
2018-12-05T05:26:16.724Z,97.68
2018-12-05T05:27:16.735Z,97.27
2018-12-05T05:28:16.702Z,97.47
2018-12-05T05:29:16.695Z,97.47
2018-12-05T05:30:16.681Z,97.37
2018-12-05T05:31:16.670Z,97.06
2018-12-05T05:32:16.699Z,97.53
2018-12-05T05:33:16.647Z,97.01
2018-12-05T05:34:16.633Z,97.33
2018-12-05T05:35:16.622Z,97.16
2018-12-05T05:36:16.608Z,97.53
2018-12-05T05:37:16.598Z,97.37
2018-12-05T05:38:16.605Z,97.12
2018-12-05T05:39:16.574Z,97.22
2018-12-05T05:40:16.566Z,97.01
2018-12-05T05:41:16.554Z,96.91
2018-12-05T05:42:16.540Z,97.12
2018-12-05T05:43:16.548Z,97.07
2018-12-05T05:44:16.517Z,97.33
2018-12-05T05:45:16.506Z,96.80
2018-12-05T05:46:16.494Z,96.45
2018-12-05T05:47:16.485Z,96.76
2018-12-05T05:48:16.493Z,96.24
2018-12-05T05:49:16.461Z,96.86
2018-12-05T05:50:16.452Z,96.55
2018-12-05T05:51:16.436Z,96.14
2018-12-05T05:52:16.428Z,96.14
2018-12-05T05:53:16.416Z,96.03
2018-12-05T05:54:16.428Z,95.93
2018-12-05T05:55:16.394Z,95.57
2018-12-05T05:56:16.381Z,95.57
2018-12-05T05:57:16.368Z,95.67
2018-12-05T05:58:16.362Z,95.26
2018-12-05T05:59:16.367Z,95.72
2018-12-05T06:00:16.335Z,95.78
2018-12-05T06:01:16.322Z,95.99
2018-12-05T06:02:16.313Z,95.26
2018-12-05T06:03:16.300Z,95.67
2018-12-05T06:04:16.317Z,95.89
2018-12-05T06:05:16.278Z,95.57
2018-12-05T06:06:16.265Z,95.47
2018-12-05T06:07:16.255Z,95.67
2018-12-05T06:08:16.246Z,95.78
2018-12-05T06:09:16.231Z,95.26
2018-12-05T06:10:16.240Z,95.47
2018-12-05T06:11:16.209Z,95.57
2018-12-05T06:12:16.197Z,95.57
2018-12-05T06:13:16.186Z,95.47
2018-12-05T06:14:16.176Z,95.67
2018-12-05T06:15:16.184Z,95.67
2018-12-05T06:16:16.160Z,95.36
2018-12-05T06:17:16.140Z,95.84
2018-12-05T06:18:23.164Z,95.89
2018-12-05T06:19:16.117Z,95.67
2018-12-05T06:20:16.122Z,95.36
2018-12-05T06:21:16.092Z,95.42
2018-12-05T06:22:16.080Z,95.67
2018-12-05T06:23:16.068Z,95.05
2018-12-05T06:24:16.058Z,95.57
2018-12-05T06:25:16.080Z,95.67
2018-12-05T06:26:16.037Z,95.53
2018-12-05T06:27:16.022Z,95.78
2018-12-05T06:28:16.012Z,95.47
2018-12-05T06:29:16.001Z,95.05
2018-12-05T06:30:16.009Z,95.32
2018-12-05T06:31:15.979Z,95.11
2018-12-05T06:32:15.966Z,95.11
2018-12-05T06:33:15.955Z,95.47
2018-12-05T06:34:15.944Z,95.11
2018-12-05T06:35:15.955Z,95.63
2018-12-05T06:36:15.919Z,95.11
2018-12-05T06:37:15.909Z,95.01
2018-12-05T06:38:15.894Z,95.32
2018-12-05T06:39:15.888Z,94.80
2018-12-05T06:40:15.881Z,94.96
2018-12-05T06:41:15.884Z,94.70
2018-12-05T06:42:15.855Z,94.90
2018-12-05T06:43:15.840Z,94.49
2018-12-05T06:44:15.828Z,94.03
2018-12-05T06:45:15.817Z,94.13
2018-12-05T06:46:15.806Z,93.93
2018-12-05T06:47:15.815Z,93.41
2018-12-05T06:48:15.779Z,93.72
2018-12-05T06:49:15.841Z,93.51
2018-12-05T06:50:15.760Z,92.99
2018-12-05T06:51:15.746Z,93.41
2018-12-05T06:52:15.789Z,93.16
2018-12-05T06:53:15.723Z,94.09
2018-12-05T06:54:15.712Z,94.09
2018-12-05T06:55:15.699Z,92.38
2018-12-05T06:56:15.689Z,92.18
2018-12-05T06:57:15.698Z,91.52
2018-12-05T06:58:15.664Z,90.72
2018-12-05T06:59:15.652Z,91.10
2018-12-05T07:00:15.638Z,91.14
2018-12-05T07:01:15.627Z,91.03
2018-12-05T07:02:15.617Z,91.14
2018-12-05T07:03:15.648Z,90.48
2018-12-05T07:04:15.593Z,90.72
2018-12-05T07:05:15.580Z,90.79
2018-12-05T07:06:15.569Z,90.69
2018-12-05T07:07:15.559Z,90.48
2018-12-05T07:08:15.569Z,90.58
2018-12-05T07:09:15.555Z,89.86
2018-12-05T07:10:15.535Z,90.48
2018-12-05T07:11:15.511Z,90.37
2018-12-05T07:12:15.498Z,90.69
2018-12-05T07:13:15.489Z,90.58
2018-12-05T07:14:15.497Z,90.58
2018-12-05T07:15:15.463Z,89.86
2018-12-05T07:16:15.456Z,89.19
2018-12-05T07:17:15.440Z,89.09
2018-12-05T07:18:15.431Z,89.19
2018-12-05T07:19:15.417Z,88.67
2018-12-05T07:20:15.445Z,88.88
2018-12-05T07:21:15.395Z,88.98
2018-12-05T07:22:15.382Z,88.98
2018-12-05T07:23:15.372Z,88.26
2018-12-05T07:24:15.359Z,88.15
2018-12-05T07:25:15.391Z,88.67
2018-12-05T07:26:15.356Z,88.36
2018-12-05T07:27:15.323Z,88.88
2018-12-05T07:28:15.312Z,88.57
2018-12-05T07:29:15.300Z,88.05
2018-12-05T07:30:15.289Z,88.46
2018-12-05T07:31:15.295Z,88.05
2018-12-05T07:32:15.263Z,87.95
2018-12-05T07:33:15.253Z,88.05
2018-12-05T07:34:15.249Z,88.42
2018-12-05T07:35:15.230Z,88.32
2018-12-05T07:36:15.238Z,88.26
2018-12-05T07:37:15.207Z,88.57
2018-12-05T07:38:19.323Z,88.94
2018-12-05T07:39:15.182Z,89.09
2018-12-05T07:40:15.176Z,89.09
2018-12-05T07:41:15.184Z,89.09
2018-12-05T07:42:15.147Z,88.88
2018-12-05T07:43:15.142Z,88.21
2018-12-05T07:44:15.124Z,88.01
2018-12-05T07:45:15.111Z,88.84
2018-12-05T07:46:15.103Z,88.21
2018-12-05T07:47:15.109Z,88.42
2018-12-05T07:48:15.076Z,88.63
2018-12-05T07:49:15.066Z,87.97
2018-12-05T07:50:15.875Z,87.66
2018-12-05T07:51:15.042Z,87.55
2018-12-05T07:52:15.052Z,86.72
2018-12-05T07:53:15.019Z,86.52
2018-12-05T07:54:15.009Z,86.27
2018-12-05T07:55:14.996Z,87.55
2018-12-05T07:56:14.989Z,87.45
2018-12-05T07:57:14.975Z,86.72
2018-12-05T07:58:14.979Z,87.41
2018-12-05T07:59:14.949Z,87.35
2018-12-05T08:00:14.939Z,87.24
2018-12-05T08:01:14.930Z,86.47
2018-12-05T08:02:14.917Z,86.27
2018-12-05T08:03:14.920Z,86.07
2018-12-05T08:04:14.892Z,85.75
2018-12-05T08:05:14.880Z,86.02
2018-12-05T08:06:14.869Z,85.96
2018-12-05T08:07:14.871Z,85.55
2018-12-05T08:08:14.863Z,85.65
2018-12-05T08:09:14.833Z,85.24
2018-12-05T08:10:14.826Z,85.03
2018-12-05T08:11:14.819Z,84.68
2018-12-05T08:12:14.809Z,85.09
2018-12-05T08:13:14.813Z,84.88
2018-12-05T08:14:14.785Z,84.78
2018-12-05T08:15:14.765Z,84.88
2018-12-05T08:16:14.757Z,84.88
2018-12-05T08:17:14.743Z,84.99
2018-12-05T08:18:14.731Z,84.43
2018-12-05T08:19:14.737Z,84.58
2018-12-05T08:20:14.710Z,84.68
2018-12-05T08:21:14.699Z,84.53
2018-12-05T08:22:14.690Z,85.82
2018-12-05T08:23:14.672Z,84.74
2018-12-05T08:24:14.681Z,84.53
2018-12-05T08:25:14.653Z,85.05
2018-12-05T08:26:14.638Z,84.53
2018-12-05T08:27:14.628Z,84.43
2018-12-05T08:28:14.618Z,83.61
2018-12-05T08:29:14.625Z,82.88
2018-12-05T08:30:14.598Z,83.19
2018-12-05T08:31:14.584Z,83.25
2018-12-05T08:32:14.570Z,83.56
2018-12-05T08:33:14.562Z,82.32
2018-12-05T08:34:14.586Z,82.12
2018-12-05T08:35:14.536Z,81.91
2018-12-05T08:36:14.528Z,81.39
2018-12-05T08:37:14.513Z,81.60
2018-12-05T08:38:14.502Z,81.46
2018-12-05T08:39:14.498Z,81.42
2018-12-05T08:40:14.502Z,81.35
2018-12-05T08:41:14.470Z,80.63
2018-12-05T08:42:14.460Z,81.15
2018-12-05T08:43:14.444Z,81.52
2018-12-05T08:44:14.432Z,81.25
2018-12-05T08:45:14.443Z,80.84
2018-12-05T08:46:14.409Z,80.80
2018-12-05T08:47:14.402Z,81.63
2018-12-05T08:48:14.386Z,80.90
2018-12-05T08:49:14.375Z,80.46
2018-12-05T08:50:14.382Z,80.70
2018-12-05T08:51:14.353Z,80.15
2018-12-05T08:52:14.341Z,80.46
2018-12-05T08:53:14.330Z,80.04
2018-12-05T08:54:20.850Z,79.42
2018-12-05T08:55:15.334Z,79.69
2018-12-05T08:56:14.295Z,79.18
2018-12-05T08:57:14.285Z,79.00
2018-12-05T08:58:14.274Z,77.97
2018-12-05T08:59:14.259Z,76.84
2018-12-05T09:00:14.272Z,76.94
2018-12-05T09:01:14.237Z,77.76
2018-12-05T09:02:14.226Z,77.45
2018-12-05T09:03:14.214Z,76.39
2018-12-05T09:04:14.203Z,77.15
2018-12-05T09:05:14.193Z,76.59
2018-12-05T09:06:14.205Z,77.18
2018-12-05T09:07:14.168Z,75.08
2018-12-05T09:08:14.155Z,75.39
2018-12-05T09:09:14.146Z,75.12
2018-12-05T09:10:14.131Z,74.77
2018-12-05T09:11:14.120Z,74.67
2018-12-05T09:12:14.126Z,73.95
2018-12-05T09:13:14.094Z,74.16
2018-12-05T09:14:14.083Z,74.05
2018-12-05T09:15:14.073Z,75.60
2018-12-05T09:16:14.060Z,75.22
2018-12-05T09:17:14.066Z,77.08
2018-12-05T09:18:14.034Z,77.08
2018-12-05T09:19:14.023Z,76.39
2018-12-05T09:20:14.012Z,75.77
2018-12-05T09:21:13.999Z,76.08
2018-12-05T09:22:14.005Z,76.39
2018-12-05T09:23:13.978Z,76.90
2018-12-05T09:24:13.962Z,77.76
2018-12-05T09:25:13.951Z,78.49
2018-12-05T09:26:13.941Z,77.15
2018-12-05T09:27:13.967Z,77.45
2018-12-05T09:28:13.913Z,77.35
2018-12-05T09:29:13.903Z,78.18
2018-12-05T09:30:13.896Z,77.35
2018-12-05T09:31:13.879Z,77.87
2018-12-05T09:32:13.867Z,77.45
2018-12-05T09:33:13.874Z,77.45
2018-12-05T09:34:13.845Z,77.97
2018-12-05T09:35:13.830Z,76.94
2018-12-05T09:36:13.820Z,77.76
2018-12-05T09:37:13.811Z,77.35
2018-12-05T09:38:13.813Z,77.35
2018-12-05T09:39:13.782Z,77.25
2018-12-05T09:40:13.769Z,76.32
2018-12-05T09:41:13.761Z,77.76
2018-12-05T09:42:13.749Z,77.31
2018-12-05T09:43:13.755Z,77.66
2018-12-05T09:44:13.722Z,77.22
2018-12-05T09:45:13.710Z,77.73
2018-12-05T09:46:13.697Z,77.22
2018-12-05T09:47:16.030Z,76.39
2018-12-05T09:48:13.699Z,77.52
2018-12-05T09:49:13.662Z,77.01
2018-12-05T09:50:13.651Z,77.22
2018-12-05T09:51:13.638Z,77.42
2018-12-05T09:52:13.628Z,76.76
2018-12-05T09:53:13.622Z,77.59
2018-12-05T09:54:13.621Z,76.25
2018-12-05T09:55:13.591Z,76.87
2018-12-05T09:56:13.578Z,76.46
2018-12-05T09:57:13.566Z,76.97
2018-12-05T09:58:13.556Z,76.35
2018-12-05T09:59:13.562Z,77.14
2018-12-05T10:00:13.530Z,76.97
2018-12-05T10:01:13.521Z,77.25
2018-12-05T10:02:13.507Z,77.97
2018-12-05T10:03:13.493Z,77.66
2018-12-05T10:04:14.437Z,76.53
2018-12-05T10:05:13.473Z,77.00
2018-12-05T10:06:13.458Z,76.79
2018-12-05T10:07:13.488Z,76.59
2018-12-05T10:08:13.441Z,77.45
2018-12-05T10:09:13.423Z,76.90
2018-12-05T10:10:13.439Z,77.21
2018-12-05T10:11:13.401Z,76.39
2018-12-05T10:12:13.386Z,75.63
2018-12-05T10:13:13.378Z,75.73
2018-12-05T10:14:13.363Z,74.22
2018-12-05T10:15:13.353Z,72.82
2018-12-05T10:16:13.362Z,68.97
2018-12-05T10:17:13.326Z,66.35
2018-12-05T10:18:13.325Z,62.68
2018-12-05T10:19:13.306Z,61.56
2018-12-05T10:20:13.295Z,61.34
2018-12-05T10:21:13.307Z,58.59
2018-12-05T10:22:13.286Z,59.23
2018-12-05T10:23:13.259Z,61.46
2018-12-05T10:24:13.247Z,63.48
2018-12-05T10:25:13.235Z,63.86
2018-12-05T10:26:13.241Z,63.90
2018-12-05T10:27:13.212Z,63.09
2018-12-05T10:28:13.201Z,63.22
2018-12-05T10:29:13.187Z,64.62
2018-12-05T10:30:13.181Z,61.53
2018-12-05T10:31:13.185Z,62.20
2018-12-05T10:32:13.150Z,62.77
2018-12-05T10:33:13.139Z,65.28
2018-12-05T10:34:13.126Z,67.46
2018-12-05T10:35:13.116Z,66.91
2018-12-05T10:36:13.151Z,67.86
2018-12-05T10:37:13.097Z,69.64
2018-12-05T10:38:13.082Z,69.23
2018-12-05T10:39:13.069Z,69.78
2018-12-05T10:40:13.055Z,71.01
2018-12-05T10:41:13.044Z,70.08
2018-12-05T10:42:13.059Z,71.25
2018-12-05T10:43:13.020Z,71.66
2018-12-05T10:44:13.010Z,70.87
2018-12-05T10:45:12.997Z,71.66
2018-12-05T10:46:12.984Z,71.69
2018-12-05T10:47:12.975Z,72.00
2018-12-05T10:48:12.980Z,71.38
2018-12-05T10:49:12.950Z,72.03
2018-12-05T10:50:12.937Z,72.72
2018-12-05T10:51:12.925Z,73.02
2018-12-05T10:52:12.914Z,72.41
2018-12-05T10:53:12.923Z,74.05
2018-12-05T10:54:12.894Z,72.31
2018-12-05T10:55:12.878Z,72.24
2018-12-05T10:56:12.867Z,72.75
2018-12-05T10:57:12.857Z,72.96
2018-12-05T10:58:12.917Z,73.06
2018-12-05T10:59:12.834Z,72.99
2018-12-05T11:00:12.820Z,74.12
2018-12-05T11:01:12.808Z,73.91
2018-12-05T11:02:12.797Z,74.19
2018-12-05T11:03:12.826Z,74.19
2018-12-05T11:04:12.775Z,75.01
2018-12-05T11:05:12.768Z,73.98
2018-12-05T11:06:12.750Z,73.88
2018-12-05T11:07:12.747Z,73.98
2018-12-05T11:08:12.729Z,73.91
2018-12-05T11:09:12.746Z,74.08
2018-12-05T11:10:12.704Z,74.12
2018-12-05T11:11:12.693Z,74.02
2018-12-05T11:12:12.682Z,74.22
2018-12-05T11:13:12.692Z,74.12
2018-12-05T11:14:12.658Z,73.91
2018-12-05T11:15:12.645Z,74.12
2018-12-05T11:16:12.640Z,74.02
2018-12-05T11:17:12.623Z,74.33
2018-12-05T11:18:12.629Z,73.91
2018-12-05T11:19:12.601Z,74.22
2018-12-05T11:20:12.593Z,74.53
2018-12-05T11:21:12.575Z,74.63
2018-12-05T11:22:12.566Z,74.98
2018-12-05T11:23:12.621Z,74.26
2018-12-05T11:24:12.541Z,74.15
2018-12-05T11:25:12.529Z,74.46
2018-12-05T11:26:12.517Z,74.02
2018-12-05T11:27:12.508Z,74.26
2018-12-05T11:28:12.494Z,75.18
2018-12-05T11:29:12.503Z,75.80
2018-12-05T11:30:12.472Z,74.67
2018-12-05T11:31:12.462Z,74.98
2018-12-05T11:32:12.448Z,74.84
2018-12-05T11:33:12.436Z,74.63
2018-12-05T11:34:12.447Z,75.04
2018-12-05T11:35:12.421Z,74.43
2018-12-05T11:36:12.405Z,74.12
2018-12-05T11:37:12.390Z,74.53
2018-12-05T11:38:12.379Z,74.26
2018-12-05T11:39:12.370Z,74.57
2018-12-05T11:40:12.374Z,74.95
2018-12-05T11:41:12.344Z,74.12
2018-12-05T11:42:12.332Z,74.95
2018-12-05T11:43:12.321Z,74.95
2018-12-05T11:44:12.310Z,74.12
2018-12-05T11:45:12.318Z,74.02
2018-12-05T11:46:12.285Z,74.12
2018-12-05T11:47:12.273Z,73.81
2018-12-05T11:48:12.262Z,74.43
2018-12-05T11:49:12.252Z,74.74
2018-12-05T11:50:12.259Z,75.67
2018-12-05T11:51:12.227Z,74.43
2018-12-05T11:52:12.216Z,74.12
2018-12-05T11:53:12.203Z,74.53
2018-12-05T11:54:12.196Z,74.63
2018-12-05T11:55:12.206Z,74.02
2018-12-05T11:56:12.170Z,74.63
2018-12-05T11:57:12.159Z,74.95
2018-12-05T11:58:12.148Z,74.84
2018-12-05T11:59:12.139Z,74.53
2018-12-05T12:00:12.142Z,75.15
2018-12-05T12:01:12.111Z,75.46
2018-12-05T12:02:12.099Z,76.07
2018-12-05T12:03:12.091Z,74.53
2018-12-05T12:04:12.077Z,75.04
2018-12-05T12:05:12.108Z,75.15
2018-12-05T12:06:12.052Z,75.70
2018-12-05T12:07:12.039Z,76.11
2018-12-05T12:08:12.028Z,75.49
2018-12-05T12:09:12.018Z,74.84
2018-12-05T12:10:12.007Z,75.80
2018-12-05T12:11:12.016Z,76.21
2018-12-05T12:12:11.999Z,76.62
2018-12-05T12:13:11.982Z,76.52
2018-12-05T12:14:11.959Z,76.21
2018-12-05T12:15:11.947Z,76.83
2018-12-05T12:16:11.952Z,76.73
2018-12-05T12:17:11.921Z,76.83
2018-12-05T12:19:07.353Z,76.86
2018-12-05T12:20:07.342Z,76.83
2018-12-05T12:21:07.353Z,76.14
2018-12-05T12:22:07.402Z,76.97
2018-12-05T12:23:07.308Z,77.58
2018-12-05T12:24:07.294Z,76.66
2018-12-05T12:25:07.282Z,77.28
2018-12-05T12:26:07.273Z,77.38
2018-12-05T12:27:07.288Z,77.69
2018-12-05T12:28:07.247Z,77.31
2018-12-05T12:29:07.234Z,77.58
2018-12-05T12:30:07.228Z,77.62
2018-12-05T12:31:07.225Z,77.79
2018-12-05T12:32:07.219Z,78.20
2018-12-05T12:33:07.188Z,78.10
2018-12-05T12:34:07.174Z,78.00
2018-12-05T12:35:07.163Z,77.79
2018-12-05T12:36:07.155Z,78.10
2018-12-05T12:37:07.167Z,78.00
2018-12-05T12:38:07.128Z,78.30
2018-12-05T12:39:07.118Z,78.30
2018-12-05T12:40:07.106Z,78.00
2018-12-05T12:41:07.091Z,78.20
2018-12-05T12:42:07.105Z,78.51
2018-12-05T12:43:07.079Z,78.20
2018-12-05T12:44:07.057Z,78.41
2018-12-05T12:45:07.062Z,78.30
2018-12-05T12:46:07.033Z,78.24
2018-12-05T12:47:07.024Z,78.41
2018-12-05T12:48:07.031Z,78.30
2018-12-05T12:49:07.001Z,78.41
2018-12-05T12:50:06.984Z,78.30
2018-12-05T12:51:06.982Z,78.14
2018-12-05T12:52:06.961Z,78.72
2018-12-05T12:53:06.972Z,78.30
2018-12-05T12:54:06.944Z,78.30
2018-12-05T12:55:06.927Z,78.44